sensor_id;sensor_type;location;lat;lon;timestamp;pressure;altitude;pressure_sealevel;temperature;humidity
16777;BME280;8505;49.456;8.164;2023-04-25T00:01:57;99125.78;;;8.59;80.95
16777;BME280;8505;49.456;8.164;2023-04-25T00:04:27;99131.63;;;8.46;81.93
16777;BME280;8505;49.456;8.164;2023-04-25T00:06:56;99136.16;;;8.38;81.76
16777;BME280;8505;49.456;8.164;2023-04-25T00:09:26;99136.78;;;8.40;81.77
16777;BME280;8505;49.456;8.164;2023-04-25T00:11:54;99134.19;;;8.32;82.65
16777;BME280;8505;49.456;8.164;2023-04-25T00:14:22;99146.03;;;8.36;82.92
16777;BME280;8505;49.456;8.164;2023-04-25T00:16:49;99138.41;;;8.49;83.05
16777;BME280;8505;49.456;8.164;2023-04-25T00:19:18;99136.28;;;8.75;80.39
16777;BME280;8505;49.456;8.164;2023-04-25T00:21:45;99129.00;;;8.77;81.27
16777;BME280;8505;49.456;8.164;2023-04-25T00:24:13;99138.28;;;8.96;79.53
16777;BME280;8505;49.456;8.164;2023-04-25T00:26:43;99146.63;;;8.77;80.49
16777;BME280;8505;49.456;8.164;2023-04-25T00:29:10;99142.25;;;9.15;78.07
16777;BME280;8505;49.456;8.164;2023-04-25T00:31:38;99142.25;;;9.15;77.54
16777;BME280;8505;49.456;8.164;2023-04-25T00:34:06;99137.50;;;9.10;78.50
16777;BME280;8505;49.456;8.164;2023-04-25T00:36:34;99134.38;;;8.84;79.58
16777;BME280;8505;49.456;8.164;2023-04-25T00:39:02;99128.00;;;9.24;76.88
16777;BME280;8505;49.456;8.164;2023-04-25T00:41:30;99137.44;;;8.96;78.47
16777;BME280;8505;49.456;8.164;2023-04-25T00:44:00;99130.59;;;8.86;79.08
16777;BME280;8505;49.456;8.164;2023-04-25T00:46:29;99133.75;;;9.05;79.33
16777;BME280;8505;49.456;8.164;2023-04-25T00:48:58;99124.06;;;9.57;76.91
16777;BME280;8505;49.456;8.164;2023-04-25T00:51:26;99122.56;;;9.40;76.90
16777;BME280;8505;49.456;8.164;2023-04-25T00:53:54;99118.13;;;8.95;78.72
16777;BME280;8505;49.456;8.164;2023-04-25T00:56:22;99116.56;;;9.09;77.90
16777;BME280;8505;49.456;8.164;2023-04-25T00:58:49;99108.78;;;9.30;77.43
16777;BME280;8505;49.456;8.164;2023-04-25T01:01:22;99112.91;;;9.10;77.84
16777;BME280;8505;49.456;8.164;2023-04-25T01:03:50;99114.34;;;9.35;76.98
16777;BME280;8505;49.456;8.164;2023-04-25T01:06:18;99112.53;;;9.36;77.74
16777;BME280;8505;49.456;8.164;2023-04-25T01:08:47;99107.81;;;9.31;78.94
16777;BME280;8505;49.456;8.164;2023-04-25T01:11:15;99110.44;;;9.31;78.04
16777;BME280;8505;49.456;8.164;2023-04-25T01:13:43;99110.44;;;9.31;78.15
16777;BME280;8505;49.456;8.164;2023-04-25T01:16:11;99117.25;;;9.03;79.85
16777;BME280;8505;49.456;8.164;2023-04-25T01:18:40;99113.31;;;8.53;82.20
16777;BME280;8505;49.456;8.164;2023-04-25T01:21:10;99107.28;;;8.67;82.44
16777;BME280;8505;49.456;8.164;2023-04-25T01:23:40;99107.56;;;9.18;80.51
16777;BME280;8505;49.456;8.164;2023-04-25T01:26:09;99105.59;;;8.97;81.06
16777;BME280;8505;49.456;8.164;2023-04-25T01:28:38;99111.75;;;8.67;82.19
16777;BME280;8505;49.456;8.164;2023-04-25T01:31:07;99103.53;;;9.07;81.25
16777;BME280;8505;49.456;8.164;2023-04-25T01:33:37;99111.03;;;8.96;81.29
16777;BME280;8505;49.456;8.164;2023-04-25T01:36:05;99108.19;;;9.05;81.37
16777;BME280;8505;49.456;8.164;2023-04-25T01:38:35;99113.28;;;9.07;81.52
16777;BME280;8505;49.456;8.164;2023-04-25T01:41:03;99104.84;;;8.88;81.86
16777;BME280;8505;49.456;8.164;2023-04-25T01:43:31;99113.03;;;8.40;83.81
16777;BME280;8505;49.456;8.164;2023-04-25T01:45:59;99113.69;;;8.42;84.21
16777;BME280;8505;49.456;8.164;2023-04-25T01:48:27;99112.28;;;8.31;84.54
16777;BME280;8505;49.456;8.164;2023-04-25T01:50:54;99117.56;;;8.31;84.94
16777;BME280;8505;49.456;8.164;2023-04-25T01:53:22;99121.00;;;8.24;84.68
16777;BME280;8505;49.456;8.164;2023-04-25T01:55:52;99121.84;;;8.24;84.95
16777;BME280;8505;49.456;8.164;2023-04-25T01:58:20;99122.97;;;8.38;84.92
16777;BME280;8505;49.456;8.164;2023-04-25T02:00:48;99123.66;;;8.32;84.84
16777;BME280;8505;49.456;8.164;2023-04-25T02:03:16;99126.34;;;8.46;84.56
16777;BME280;8505;49.456;8.164;2023-04-25T02:05:44;99119.47;;;8.45;84.00
16777;BME280;8505;49.456;8.164;2023-04-25T02:08:13;99117.47;;;8.47;84.24
16777;BME280;8505;49.456;8.164;2023-04-25T02:10:40;99124.25;;;8.42;84.52
16777;BME280;8505;49.456;8.164;2023-04-25T02:13:10;99125.28;;;8.25;84.40
16777;BME280;8505;49.456;8.164;2023-04-25T02:15:37;99119.34;;;8.39;84.21
16777;BME280;8505;49.456;8.164;2023-04-25T02:18:05;99114.91;;;8.31;84.39
16777;BME280;8505;49.456;8.164;2023-04-25T02:20:34;99111.34;;;8.47;83.59
16777;BME280;8505;49.456;8.164;2023-04-25T02:23:02;99114.28;;;8.52;83.45
16777;BME280;8505;49.456;8.164;2023-04-25T02:25:30;99107.56;;;8.49;83.46
16777;BME280;8505;49.456;8.164;2023-04-25T02:27:58;99111.59;;;8.37;83.93
16777;BME280;8505;49.456;8.164;2023-04-25T02:30:27;99112.84;;;8.49;83.94
16777;BME280;8505;49.456;8.164;2023-04-25T02:32:54;99105.09;;;8.48;84.00
16777;BME280;8505;49.456;8.164;2023-04-25T02:35:23;99099.56;;;8.35;85.03
16777;BME280;8505;49.456;8.164;2023-04-25T02:37:50;99101.56;;;8.25;85.37
16777;BME280;8505;49.456;8.164;2023-04-25T02:40:18;99103.66;;;8.37;84.78
16777;BME280;8505;49.456;8.164;2023-04-25T02:42:46;99098.94;;;8.17;85.73
16777;BME280;8505;49.456;8.164;2023-04-25T02:45:14;99101.72;;;8.23;85.45
16777;BME280;8505;49.456;8.164;2023-04-25T02:47:43;99106.31;;;8.29;85.29
16777;BME280;8505;49.456;8.164;2023-04-25T02:50:10;99104.19;;;8.25;84.63
16777;BME280;8505;49.456;8.164;2023-04-25T02:52:38;99110.16;;;8.19;84.88
16777;BME280;8505;49.456;8.164;2023-04-25T02:55:07;99100.25;;;8.21;85.00
16777;BME280;8505;49.456;8.164;2023-04-25T02:57:34;99097.97;;;8.18;84.48
16777;BME280;8505;49.456;8.164;2023-04-25T03:00:03;99100.47;;;8.03;85.27
16777;BME280;8505;49.456;8.164;2023-04-25T03:02:32;99091.75;;;8.02;85.83
16777;BME280;8505;49.456;8.164;2023-04-25T03:05:01;99099.91;;;8.24;85.68
16777;BME280;8505;49.456;8.164;2023-04-25T03:07:29;99096.59;;;8.30;84.35
16777;BME280;8505;49.456;8.164;2023-04-25T03:09:57;99091.16;;;8.31;84.85
16777;BME280;8505;49.456;8.164;2023-04-25T03:12:25;99090.50;;;8.21;85.65
16777;BME280;8505;49.456;8.164;2023-04-25T03:14:52;99090.34;;;8.23;84.91
16777;BME280;8505;49.456;8.164;2023-04-25T03:17:20;99093.94;;;8.30;84.25
16777;BME280;8505;49.456;8.164;2023-04-25T03:19:48;99091.19;;;8.15;85.09
16777;BME280;8505;49.456;8.164;2023-04-25T03:22:17;99089.59;;;8.14;85.58
16777;BME280;8505;49.456;8.164;2023-04-25T03:24:45;99088.19;;;8.26;85.07
16777;BME280;8505;49.456;8.164;2023-04-25T03:27:13;99088.41;;;8.17;85.17
16777;BME280;8505;49.456;8.164;2023-04-25T03:29:41;99092.03;;;8.16;85.88
16777;BME280;8505;49.456;8.164;2023-04-25T03:32:09;99095.78;;;8.21;85.44
16777;BME280;8505;49.456;8.164;2023-04-25T03:34:36;99094.06;;;8.05;85.39
16777;BME280;8505;49.456;8.164;2023-04-25T03:37:04;99090.13;;;8.01;85.59
16777;BME280;8505;49.456;8.164;2023-04-25T03:39:33;99090.31;;;7.92;86.04
16777;BME280;8505;49.456;8.164;2023-04-25T03:42:01;99096.94;;;7.88;86.52
16777;BME280;8505;49.456;8.164;2023-04-25T03:44:29;99094.63;;;7.85;86.23
16777;BME280;8505;49.456;8.164;2023-04-25T03:46:57;99098.28;;;7.84;86.35
16777;BME280;8505;49.456;8.164;2023-04-25T03:49:25;99101.06;;;7.82;86.42
16777;BME280;8505;49.456;8.164;2023-04-25T03:51:52;99102.06;;;7.81;86.11
16777;BME280;8505;49.456;8.164;2023-04-25T03:54:20;99102.53;;;7.85;85.89
16777;BME280;8505;49.456;8.164;2023-04-25T03:56:49;99103.84;;;7.89;85.69
16777;BME280;8505;49.456;8.164;2023-04-25T03:59:17;99106.81;;;7.86;85.49
16777;BME280;8505;49.456;8.164;2023-04-25T04:01:44;99115.69;;;7.85;85.69
16777;BME280;8505;49.456;8.164;2023-04-25T04:04:12;99115.22;;;7.81;85.94
16777;BME280;8505;49.456;8.164;2023-04-25T04:06:40;99110.44;;;7.85;86.08
16777;BME280;8505;49.456;8.164;2023-04-25T04:09:08;99113.94;;;7.77;86.04
16777;BME280;8505;49.456;8.164;2023-04-25T04:11:38;99122.47;;;7.87;86.24
16777;BME280;8505;49.456;8.164;2023-04-25T04:14:07;99116.19;;;7.88;86.13
16777;BME280;8505;49.456;8.164;2023-04-25T04:16:36;99117.78;;;8.05;85.73
16777;BME280;8505;49.456;8.164;2023-04-25T04:19:04;99104.25;;;8.08;85.46
16777;BME280;8505;49.456;8.164;2023-04-25T04:21:32;99108.75;;;8.00;85.38
16777;BME280;8505;49.456;8.164;2023-04-25T04:23:59;99109.66;;;8.15;85.37
16777;BME280;8505;49.456;8.164;2023-04-25T04:26:27;99103.63;;;8.06;85.06
16777;BME280;8505;49.456;8.164;2023-04-25T04:28:55;99105.97;;;7.93;85.55
16777;BME280;8505;49.456;8.164;2023-04-25T04:31:26;99112.72;;;7.96;85.27
16777;BME280;8505;49.456;8.164;2023-04-25T04:33:54;99114.03;;;7.92;85.50
16777;BME280;8505;49.456;8.164;2023-04-25T04:36:22;99110.25;;;7.94;85.44
16777;BME280;8505;49.456;8.164;2023-04-25T04:38:52;99119.34;;;7.84;85.80
16777;BME280;8505;49.456;8.164;2023-04-25T04:41:20;99127.91;;;7.86;85.07
16777;BME280;8505;49.456;8.164;2023-04-25T04:43:48;99120.50;;;7.81;85.88
16777;BME280;8505;49.456;8.164;2023-04-25T04:46:16;99131.19;;;7.88;85.25
16777;BME280;8505;49.456;8.164;2023-04-25T04:48:46;99128.22;;;7.91;85.08
16777;BME280;8505;49.456;8.164;2023-04-25T04:51:13;99124.41;;;8.01;85.09
16777;BME280;8505;49.456;8.164;2023-04-25T04:53:41;99124.88;;;7.97;84.62
16777;BME280;8505;49.456;8.164;2023-04-25T04:56:09;99124.56;;;8.00;84.26
16777;BME280;8505;49.456;8.164;2023-04-25T04:58:36;99123.94;;;7.90;84.64
16777;BME280;8505;49.456;8.164;2023-04-25T05:01:04;99118.09;;;8.02;84.81
16777;BME280;8505;49.456;8.164;2023-04-25T05:03:32;99131.97;;;8.04;84.27
16777;BME280;8505;49.456;8.164;2023-04-25T05:06:02;99131.00;;;7.97;84.29
16777;BME280;8505;49.456;8.164;2023-04-25T05:08:29;99130.66;;;8.00;84.97
16777;BME280;8505;49.456;8.164;2023-04-25T05:10:57;99132.63;;;7.98;84.11
16777;BME280;8505;49.456;8.164;2023-04-25T05:13:24;99144.84;;;7.99;84.73
16777;BME280;8505;49.456;8.164;2023-04-25T05:15:52;99139.09;;;7.96;84.47
16777;BME280;8505;49.456;8.164;2023-04-25T05:18:20;99141.03;;;8.02;84.37
16777;BME280;8505;49.456;8.164;2023-04-25T05:20:49;99145.94;;;8.13;84.34
16777;BME280;8505;49.456;8.164;2023-04-25T05:23:18;99153.03;;;8.12;83.83
16777;BME280;8505;49.456;8.164;2023-04-25T05:25:49;99160.25;;;8.19;83.83
16777;BME280;8505;49.456;8.164;2023-04-25T05:28:17;99156.03;;;8.48;83.35
16777;BME280;8505;49.456;8.164;2023-04-25T05:30:45;99160.53;;;8.40;82.98
16777;BME280;8505;49.456;8.164;2023-04-25T05:33:12;99162.16;;;8.41;83.46
16777;BME280;8505;49.456;8.164;2023-04-25T05:35:41;99158.41;;;8.35;83.27
16777;BME280;8505;49.456;8.164;2023-04-25T05:38:09;99158.66;;;8.57;82.97
16777;BME280;8505;49.456;8.164;2023-04-25T05:40:38;99165.09;;;8.54;82.62
16777;BME280;8505;49.456;8.164;2023-04-25T05:43:06;99165.31;;;8.44;82.73
16777;BME280;8505;49.456;8.164;2023-04-25T05:45:33;99164.75;;;8.57;82.73
16777;BME280;8505;49.456;8.164;2023-04-25T05:48:01;99167.72;;;8.54;82.91
16777;BME280;8505;49.456;8.164;2023-04-25T05:50:29;99165.69;;;8.64;82.76
16777;BME280;8505;49.456;8.164;2023-04-25T05:52:57;99164.13;;;8.47;82.55
16777;BME280;8505;49.456;8.164;2023-04-25T05:55:24;99166.38;;;8.58;82.83
16777;BME280;8505;49.456;8.164;2023-04-25T05:57:53;99171.31;;;8.61;82.37
16777;BME280;8505;49.456;8.164;2023-04-25T06:00:21;99173.38;;;8.51;82.64
16777;BME280;8505;49.456;8.164;2023-04-25T06:02:50;99174.69;;;8.47;83.06
16777;BME280;8505;49.456;8.164;2023-04-25T06:05:18;99180.78;;;8.47;82.74
16777;BME280;8505;49.456;8.164;2023-04-25T06:07:46;99184.53;;;8.61;82.26
16777;BME280;8505;49.456;8.164;2023-04-25T06:10:13;99189.25;;;8.74;82.12
16777;BME280;8505;49.456;8.164;2023-04-25T06:12:41;99188.28;;;8.67;81.97
16777;BME280;8505;49.456;8.164;2023-04-25T06:15:10;99187.25;;;9.07;82.11
16777;BME280;8505;49.456;8.164;2023-04-25T06:17:54;99191.69;;;9.29;83.08
16777;BME280;8505;49.456;8.164;2023-04-25T06:20:22;99190.16;;;9.34;82.10
16777;BME280;8505;49.456;8.164;2023-04-25T06:22:51;99183.22;;;9.56;80.38
16777;BME280;8505;49.456;8.164;2023-04-25T06:25:19;99188.47;;;9.42;78.65
16777;BME280;8505;49.456;8.164;2023-04-25T06:27:49;99188.47;;;9.19;79.20
16777;BME280;8505;49.456;8.164;2023-04-25T06:30:18;99192.41;;;9.23;79.10
16777;BME280;8505;49.456;8.164;2023-04-25T06:32:48;99191.94;;;9.42;78.78
16777;BME280;8505;49.456;8.164;2023-04-25T06:35:16;99195.16;;;9.29;78.10
16777;BME280;8505;49.456;8.164;2023-04-25T06:37:44;99202.72;;;9.10;77.53
16777;BME280;8505;49.456;8.164;2023-04-25T06:40:12;99202.53;;;9.34;76.94
16777;BME280;8505;49.456;8.164;2023-04-25T06:42:40;99191.44;;;9.16;78.44
16777;BME280;8505;49.456;8.164;2023-04-25T06:45:08;99195.09;;;9.15;78.11
16777;BME280;8505;49.456;8.164;2023-04-25T06:47:38;99198.63;;;9.30;79.03
16777;BME280;8505;49.456;8.164;2023-04-25T06:50:06;99203.22;;;9.13;79.51
16777;BME280;8505;49.456;8.164;2023-04-25T06:52:34;99207.41;;;9.22;79.12
16777;BME280;8505;49.456;8.164;2023-04-25T06:55:02;99210.94;;;9.15;79.47
16777;BME280;8505;49.456;8.164;2023-04-25T06:57:31;99222.72;;;9.04;79.60
16777;BME280;8505;49.456;8.164;2023-04-25T06:59:59;99218.28;;;8.74;76.32
16777;BME280;8505;49.456;8.164;2023-04-25T07:02:28;99224.66;;;8.48;78.16
16777;BME280;8505;49.456;8.164;2023-04-25T07:04:57;99223.53;;;8.82;77.85
16777;BME280;8505;49.456;8.164;2023-04-25T07:07:26;99221.00;;;8.58;78.16
16777;BME280;8505;49.456;8.164;2023-04-25T07:09:53;99238.53;;;8.34;78.96
16777;BME280;8505;49.456;8.164;2023-04-25T07:12:21;99234.31;;;7.93;80.43
16777;BME280;8505;49.456;8.164;2023-04-25T07:14:49;99234.31;;;8.01;79.14
16777;BME280;8505;49.456;8.164;2023-04-25T07:17:17;99241.03;;;8.03;79.24
16777;BME280;8505;49.456;8.164;2023-04-25T07:19:44;99242.69;;;7.96;79.91
16777;BME280;8505;49.456;8.164;2023-04-25T07:22:13;99240.88;;;7.97;77.63
16777;BME280;8505;49.456;8.164;2023-04-25T07:24:41;99245.84;;;7.92;78.19
16777;BME280;8505;49.456;8.164;2023-04-25T07:27:09;99247.31;;;8.02;78.12
16777;BME280;8505;49.456;8.164;2023-04-25T07:29:36;99251.13;;;7.67;79.69
16777;BME280;8505;49.456;8.164;2023-04-25T07:32:04;99247.97;;;7.96;79.67
16777;BME280;8505;49.456;8.164;2023-04-25T07:34:32;99251.16;;;7.84;81.97
16777;BME280;8505;49.456;8.164;2023-04-25T07:37:03;99249.78;;;8.20;81.19
16777;BME280;8505;49.456;8.164;2023-04-25T07:39:32;99255.19;;;8.35;80.61
16777;BME280;8505;49.456;8.164;2023-04-25T07:42:01;99252.69;;;8.41;79.83
16777;BME280;8505;49.456;8.164;2023-04-25T07:44:30;99248.00;;;7.88;81.43
16777;BME280;8505;49.456;8.164;2023-04-25T07:46:57;99252.06;;;8.15;80.42
16777;BME280;8505;49.456;8.164;2023-04-25T07:49:29;99257.22;;;8.00;81.89
16777;BME280;8505;49.456;8.164;2023-04-25T07:51:57;99260.13;;;8.22;80.85
16777;BME280;8505;49.456;8.164;2023-04-25T07:54:25;99267.31;;;8.68;79.00
16777;BME280;8505;49.456;8.164;2023-04-25T07:56:54;99271.03;;;8.27;79.87
16777;BME280;8505;49.456;8.164;2023-04-25T07:59:22;99277.56;;;8.63;78.18
16777;BME280;8505;49.456;8.164;2023-04-25T08:01:49;99282.22;;;8.92;78.63
16777;BME280;8505;49.456;8.164;2023-04-25T08:04:17;99282.19;;;9.00;79.02
16777;BME280;8505;49.456;8.164;2023-04-25T08:06:45;99283.78;;;9.09;78.07
16777;BME280;8505;49.456;8.164;2023-04-25T08:09:14;99285.28;;;9.04;78.58
16777;BME280;8505;49.456;8.164;2023-04-25T08:11:42;99289.41;;;8.59;77.74
16777;BME280;8505;49.456;8.164;2023-04-25T08:14:12;99284.00;;;9.00;78.84
16777;BME280;8505;49.456;8.164;2023-04-25T08:16:40;99296.78;;;9.19;78.23
16777;BME280;8505;49.456;8.164;2023-04-25T08:19:09;99295.84;;;9.04;78.17
16777;BME280;8505;49.456;8.164;2023-04-25T08:21:37;99303.50;;;8.90;78.14
16777;BME280;8505;49.456;8.164;2023-04-25T08:24:06;99316.00;;;8.97;78.82
16777;BME280;8505;49.456;8.164;2023-04-25T08:26:34;99321.38;;;8.80;79.01
16777;BME280;8505;49.456;8.164;2023-04-25T08:29:03;99315.00;;;9.06;77.60
16777;BME280;8505;49.456;8.164;2023-04-25T08:31:33;99325.03;;;9.10;77.12
16777;BME280;8505;49.456;8.164;2023-04-25T08:34:01;99324.88;;;9.12;76.50
16777;BME280;8505;49.456;8.164;2023-04-25T08:36:28;99328.63;;;8.70;76.66
16777;BME280;8505;49.456;8.164;2023-04-25T08:39:05;99322.50;;;9.25;76.94
16777;BME280;8505;49.456;8.164;2023-04-25T08:41:34;99335.91;;;9.46;75.83
16777;BME280;8505;49.456;8.164;2023-04-25T08:44:05;99339.22;;;9.71;75.96
16777;BME280;8505;49.456;8.164;2023-04-25T08:46:34;99343.66;;;9.79;75.73
16777;BME280;8505;49.456;8.164;2023-04-25T08:49:02;99346.56;;;9.61;74.27
16777;BME280;8505;49.456;8.164;2023-04-25T08:51:32;99345.66;;;9.46;74.45
16777;BME280;8505;49.456;8.164;2023-04-25T08:54:08;99344.75;;;9.61;74.45
16777;BME280;8505;49.456;8.164;2023-04-25T08:56:56;99344.63;;;10.00;74.24
16777;BME280;8505;49.456;8.164;2023-04-25T08:59:25;99344.50;;;9.71;73.84
16777;BME280;8505;49.456;8.164;2023-04-25T09:01:54;99351.13;;;9.98;72.90
16777;BME280;8505;49.456;8.164;2023-04-25T09:04:22;99354.75;;;10.42;71.91
16777;BME280;8505;49.456;8.164;2023-04-25T09:06:50;99355.44;;;10.13;71.23
16777;BME280;8505;49.456;8.164;2023-04-25T09:09:18;99346.81;;;10.42;70.34
16777;BME280;8505;49.456;8.164;2023-04-25T09:11:46;99355.53;;;10.05;70.54
16777;BME280;8505;49.456;8.164;2023-04-25T09:14:15;99361.25;;;9.63;70.73
16777;BME280;8505;49.456;8.164;2023-04-25T09:17:12;99368.00;;;9.43;70.73
16777;BME280;8505;49.456;8.164;2023-04-25T09:19:40;99366.09;;;9.52;70.72
16777;BME280;8505;49.456;8.164;2023-04-25T09:22:08;99375.34;;;9.25;71.16
16777;BME280;8505;49.456;8.164;2023-04-25T09:24:37;99379.03;;;9.47;70.80
16777;BME280;8505;49.456;8.164;2023-04-25T09:27:06;99382.66;;;9.77;68.53
16777;BME280;8505;49.456;8.164;2023-04-25T09:29:36;99384.50;;;9.99;67.82
16777;BME280;8505;49.456;8.164;2023-04-25T09:32:14;99381.31;;;10.49;66.65
16777;BME280;8505;49.456;8.164;2023-04-25T09:34:43;99384.91;;;10.33;66.04
16777;BME280;8505;49.456;8.164;2023-04-25T09:37:17;99395.09;;;9.99;65.73
16777;BME280;8505;49.456;8.164;2023-04-25T09:39:46;99403.78;;;9.85;66.59
16777;BME280;8505;49.456;8.164;2023-04-25T09:42:15;99405.19;;;9.95;67.54
16777;BME280;8505;49.456;8.164;2023-04-25T09:44:44;99410.63;;;9.71;67.75
16777;BME280;8505;49.456;8.164;2023-04-25T09:47:15;99418.47;;;9.87;67.78
16777;BME280;8505;49.456;8.164;2023-04-25T09:49:44;99411.94;;;10.43;66.11
16777;BME280;8505;49.456;8.164;2023-04-25T09:52:16;99413.91;;;10.27;66.46
16777;BME280;8505;49.456;8.164;2023-04-25T09:54:45;99414.44;;;10.45;65.42
16777;BME280;8505;49.456;8.164;2023-04-25T09:57:14;99415.19;;;10.31;65.40
16777;BME280;8505;49.456;8.164;2023-04-25T09:59:46;99422.00;;;10.02;66.57
16777;BME280;8505;49.456;8.164;2023-04-25T10:02:18;99421.97;;;10.71;64.65
16777;BME280;8505;49.456;8.164;2023-04-25T10:04:49;99434.66;;;10.38;65.57
16777;BME280;8505;49.456;8.164;2023-04-25T10:07:19;99427.66;;;10.45;65.86
16777;BME280;8505;49.456;8.164;2023-04-25T10:09:48;99430.41;;;10.51;66.20
16777;BME280;8505;49.456;8.164;2023-04-25T10:12:17;99442.09;;;10.42;67.17
16777;BME280;8505;49.456;8.164;2023-04-25T10:14:45;99436.94;;;10.64;67.55
16777;BME280;8505;49.456;8.164;2023-04-25T10:17:15;99442.28;;;10.93;67.08
16777;BME280;8505;49.456;8.164;2023-04-25T10:19:44;99445.50;;;11.03;66.20
16777;BME280;8505;49.456;8.164;2023-04-25T10:22:16;99447.88;;;11.13;66.43
16777;BME280;8505;49.456;8.164;2023-04-25T10:24:46;99443.22;;;11.44;65.81
16777;BME280;8505;49.456;8.164;2023-04-25T10:27:14;99447.44;;;11.09;67.16
16777;BME280;8505;49.456;8.164;2023-04-25T10:29:42;99450.88;;;10.58;67.87
16777;BME280;8505;49.456;8.164;2023-04-25T10:32:10;99442.38;;;10.25;69.54
16777;BME280;8505;49.456;8.164;2023-04-25T10:34:42;99444.78;;;10.57;69.75
16777;BME280;8505;49.456;8.164;2023-04-25T10:37:13;99447.22;;;10.96;68.96
16777;BME280;8505;49.456;8.164;2023-04-25T10:39:41;99451.13;;;11.88;67.55
16777;BME280;8505;49.456;8.164;2023-04-25T10:42:11;99442.56;;;12.71;64.27
16777;BME280;8505;49.456;8.164;2023-04-25T10:44:39;99429.72;;;13.37;61.13
16777;BME280;8505;49.456;8.164;2023-04-25T10:47:07;99437.47;;;14.40;58.11
16777;BME280;8505;49.456;8.164;2023-04-25T10:49:37;99429.66;;;13.24;56.01
16777;BME280;8505;49.456;8.164;2023-04-25T10:52:14;99444.84;;;12.10;59.01
16777;BME280;8505;49.456;8.164;2023-04-25T10:54:46;99443.69;;;11.48;62.55
16777;BME280;8505;49.456;8.164;2023-04-25T10:57:30;99455.56;;;11.52;63.08
16777;BME280;8505;49.456;8.164;2023-04-25T10:59:59;99452.25;;;11.64;60.69
16777;BME280;8505;49.456;8.164;2023-04-25T11:02:28;99452.91;;;11.66;61.31
16777;BME280;8505;49.456;8.164;2023-04-25T11:04:56;99450.78;;;10.88;62.26
16777;BME280;8505;49.456;8.164;2023-04-25T11:07:42;99450.16;;;10.49;63.16
16777;BME280;8505;49.456;8.164;2023-04-25T11:10:25;99452.13;;;10.47;63.21
16777;BME280;8505;49.456;8.164;2023-04-25T11:12:53;99452.59;;;10.50;63.21
16777;BME280;8505;49.456;8.164;2023-04-25T11:15:22;99456.56;;;10.92;62.59
16777;BME280;8505;49.456;8.164;2023-04-25T11:17:51;99463.63;;;10.77;61.13
16777;BME280;8505;49.456;8.164;2023-04-25T11:20:19;99472.34;;;10.63;62.33
16777;BME280;8505;49.456;8.164;2023-04-25T11:22:48;99457.50;;;11.28;61.95
16777;BME280;8505;49.456;8.164;2023-04-25T11:25:18;99457.06;;;10.73;62.03
16777;BME280;8505;49.456;8.164;2023-04-25T11:27:50;99474.00;;;10.64;62.46
16777;BME280;8505;49.456;8.164;2023-04-25T11:30:19;99462.66;;;10.92;61.59
16777;BME280;8505;49.456;8.164;2023-04-25T11:32:47;99471.19;;;11.17;61.32
16777;BME280;8505;49.456;8.164;2023-04-25T11:35:16;99462.94;;;11.12;61.58
16777;BME280;8505;49.456;8.164;2023-04-25T11:37:44;99463.88;;;11.78;58.50
16777;BME280;8505;49.456;8.164;2023-04-25T11:40:13;99469.19;;;12.35;57.91
16777;BME280;8505;49.456;8.164;2023-04-25T11:42:44;99464.06;;;12.76;56.42
16777;BME280;8505;49.456;8.164;2023-04-25T11:45:12;99473.25;;;12.52;56.78
16777;BME280;8505;49.456;8.164;2023-04-25T11:47:40;99473.88;;;11.97;59.04
16777;BME280;8505;49.456;8.164;2023-04-25T11:50:09;99461.75;;;11.88;58.59
16777;BME280;8505;49.456;8.164;2023-04-25T11:52:38;99474.44;;;12.07;58.79
16777;BME280;8505;49.456;8.164;2023-04-25T11:55:08;99474.94;;;11.82;59.77
16777;BME280;8505;49.456;8.164;2023-04-25T11:57:39;99477.75;;;11.80;59.25
16777;BME280;8505;49.456;8.164;2023-04-25T12:00:10;99477.09;;;12.29;58.73
16777;BME280;8505;49.456;8.164;2023-04-25T12:02:44;99475.59;;;12.62;57.82
16777;BME280;8505;49.456;8.164;2023-04-25T12:05:14;99474.94;;;12.81;55.93
16777;BME280;8505;49.456;8.164;2023-04-25T12:07:57;99470.09;;;12.91;55.85
16777;BME280;8505;49.456;8.164;2023-04-25T12:10:25;99473.56;;;13.13;54.86
16777;BME280;8505;49.456;8.164;2023-04-25T12:12:55;99479.88;;;12.63;55.92
16777;BME280;8505;49.456;8.164;2023-04-25T12:15:24;99485.25;;;12.27;56.28
16777;BME280;8505;49.456;8.164;2023-04-25T12:17:53;99488.38;;;12.16;56.66
16777;BME280;8505;49.456;8.164;2023-04-25T12:20:24;99479.34;;;11.45;56.60
16777;BME280;8505;49.456;8.164;2023-04-25T12:22:53;99488.53;;;11.93;55.77
16777;BME280;8505;49.456;8.164;2023-04-25T12:25:34;99485.03;;;12.07;57.17
16777;BME280;8505;49.456;8.164;2023-04-25T12:28:13;99479.72;;;12.07;56.58
16777;BME280;8505;49.456;8.164;2023-04-25T12:30:57;99488.94;;;11.46;57.27
16777;BME280;8505;49.456;8.164;2023-04-25T12:33:27;99493.84;;;12.29;56.30
16777;BME280;8505;49.456;8.164;2023-04-25T12:35:56;99491.53;;;12.90;54.44
16777;BME280;8505;49.456;8.164;2023-04-25T12:38:25;99497.06;;;12.88;54.67
16777;BME280;8505;49.456;8.164;2023-04-25T12:40:53;99489.41;;;13.28;52.76
16777;BME280;8505;49.456;8.164;2023-04-25T12:43:22;99492.47;;;13.04;53.64
16777;BME280;8505;49.456;8.164;2023-04-25T12:45:52;99499.31;;;12.64;54.14
16777;BME280;8505;49.456;8.164;2023-04-25T12:48:20;99499.34;;;12.91;54.68
16777;BME280;8505;49.456;8.164;2023-04-25T12:50:48;99500.00;;;12.51;57.11
16777;BME280;8505;49.456;8.164;2023-04-25T12:53:16;99496.66;;;12.64;55.07
16777;BME280;8505;49.456;8.164;2023-04-25T12:55:45;99496.78;;;12.34;55.28
16777;BME280;8505;49.456;8.164;2023-04-25T12:58:13;99496.47;;;12.65;54.89
16777;BME280;8505;49.456;8.164;2023-04-25T13:00:42;99492.19;;;11.92;57.05
16777;BME280;8505;49.456;8.164;2023-04-25T13:03:10;99492.03;;;12.51;56.15
16777;BME280;8505;49.456;8.164;2023-04-25T13:05:39;99495.13;;;12.33;55.00
16777;BME280;8505;49.456;8.164;2023-04-25T13:08:07;99491.41;;;12.28;54.84
16777;BME280;8505;49.456;8.164;2023-04-25T13:10:35;99498.41;;;12.78;53.89
16777;BME280;8505;49.456;8.164;2023-04-25T13:13:04;99490.28;;;12.86;53.04
16777;BME280;8505;49.456;8.164;2023-04-25T13:15:32;99499.91;;;12.66;53.24
16777;BME280;8505;49.456;8.164;2023-04-25T13:18:02;99499.47;;;12.20;54.25
16777;BME280;8505;49.456;8.164;2023-04-25T13:20:30;99497.66;;;12.05;53.55
16777;BME280;8505;49.456;8.164;2023-04-25T13:22:58;99511.06;;;11.83;55.46
16777;BME280;8505;49.456;8.164;2023-04-25T13:25:28;99508.66;;;12.02;54.69
16777;BME280;8505;49.456;8.164;2023-04-25T13:27:56;99510.50;;;11.28;55.29
16777;BME280;8505;49.456;8.164;2023-04-25T13:30:24;99507.34;;;11.77;55.00